Time;durP1;ratioP1;P1;durP2;ratioP2;P2;SDS_P1;SDS_P2;PMS_P1;PMS_P2;Temp;Humidity;BMP_temperature;BMP_pressure;BME280_temperature;BME280_humidity;BME280_pressure;Samples;Min_cycle;Max_cycle;Signal;HPM_P1;HPM_P2
2022/06/07 00:03:05;;;;;;;4.88;2.70;;;;;;;13.80;100.00;100414.91;8292329;28;20033;-63
2022/06/07 00:07:08;;;;;;;3.63;2.05;;;;;;;13.78;100.00;100416.91;8291832;28;20041;-63
2022/06/07 00:11:08;;;;;;;3.53;2.30;;;;;;;13.49;100.00;100417.31;8291029;28;20045;-63
2022/06/07 00:15:09;;;;;;;2.38;2.17;;;;;;;13.58;100.00;100413.59;8285915;28;20116;-63
2022/06/07 00:19:10;;;;;;;5.85;2.20;;;;;;;13.73;100.00;100413.84;8291729;28;20041;-63
2022/06/07 00:23:14;;;;;;;4.32;2.35;;;;;;;13.72;100.00;100407.56;8299650;28;20037;-63
2022/06/07 00:27:15;;;;;;;4.88;2.65;;;;;;;13.96;100.00;100404.06;8284148;28;20490;-63
2022/06/07 00:31:15;;;;;;;3.67;2.70;;;;;;;14.02;99.62;100403.41;8291716;28;20430;-63
2022/06/07 00:35:16;;;;;;;3.35;2.55;;;;;;;14.03;98.72;100407.84;8304296;28;20034;-63
2022/06/07 00:39:16;;;;;;;2.63;2.42;;;;;;;13.99;98.80;100398.31;8290024;28;20026;-63
2022/06/07 00:43:21;;;;;;;5.13;2.30;;;;;;;14.06;98.29;100399.34;8291322;28;20522;-63
2022/06/07 00:47:25;;;;;;;3.05;2.00;;;;;;;14.11;96.63;100391.56;8290962;28;20030;-63
2022/06/07 00:51:25;;;;;;;7.77;2.40;;;;;;;14.06;96.71;100388.47;8300676;28;20038;-63
2022/06/07 00:55:27;;;;;;;5.07;2.30;;;;;;;14.15;96.16;100395.63;8289573;28;20523;-63
2022/06/07 00:59:28;;;;;;;3.63;1.70;;;;;;;14.19;95.79;100393.44;8289984;28;20272;-63
2022/06/07 01:03:29;;;;;;;4.32;2.22;;;;;;;14.28;95.11;100387.91;8291084;28;20556;-63
2022/06/07 01:11:49;;;;;;;5.97;2.20;;;;;;;14.02;96.16;100378.94;8291065;28;20287;-63
2022/06/07 01:15:51;;;;;;;10.93;3.20;;;;;;;13.97;96.47;100384.06;8290811;28;20058;-63
2022/06/07 01:19:52;;;;;;;5.80;2.00;;;;;;;13.89;96.85;100392.16;8296801;28;20037;-63
2022/06/07 01:23:52;;;;;;;4.38;2.28;;;;;;;14.12;96.58;100379.66;8287045;28;20117;-63
2022/06/07 01:27:53;;;;;;;15.15;2.53;;;;;;;14.17;95.33;100381.88;8281137;28;20041;-63
2022/06/07 01:31:53;;;;;;;5.28;1.90;;;;;;;14.00;97.15;100378.25;8288682;28;20030;-63
2022/06/07 01:36:13;;;;;;;2.83;1.73;;;;;;;13.93;94.79;100382.66;8291999;28;20030;-63
2022/06/07 01:44:39;;;;;;;2.38;1.40;;;;;;;13.83;92.99;100381.97;8296178;28;20113;-63
2022/06/07 01:48:40;;;;;;;4.32;1.90;;;;;;;13.82;93.13;100370.22;8296017;28;20057;-63
2022/06/07 01:52:40;;;;;;;2.90;1.48;;;;;;;13.77;93.06;100377.19;8288283;28;20038;-63
2022/06/07 01:56:41;;;;;;;8.23;1.97;;;;;;;13.79;92.51;100377.88;8294084;28;20404;-63
2022/06/07 02:00:41;;;;;;;1.35;1.20;;;;;;;13.77;91.89;100366.31;8295752;28;20273;-62
2022/06/07 02:04:43;;;;;;;3.92;1.75;;;;;;;13.76;91.48;100368.16;8295288;28;20552;-62
2022/06/07 02:08:43;;;;;;;5.97;1.42;;;;;;;13.71;91.33;100364.25;8295977;28;20124;-62
2022/06/07 02:12:44;;;;;;;3.03;1.33;;;;;;;13.75;91.43;100362.91;8295709;28;20092;-62
2022/06/07 02:16:44;;;;;;;6.07;1.67;;;;;;;13.67;92.00;100349.31;8291790;28;20293;-62
2022/06/07 02:20:45;;;;;;;1.88;1.40;;;;;;;13.66;91.49;100351.16;8304123;28;20061;-62
2022/06/07 02:24:45;;;;;;;3.17;1.40;;;;;;;13.70;90.79;100351.69;8293834;28;20034;-62
2022/06/07 02:28:50;;;;;;;5.77;1.63;;;;;;;13.73;90.47;100354.09;8295078;28;20040;-62
2022/06/07 02:32:51;;;;;;;3.85;1.95;;;;;;;13.68;90.37;100356.44;8295063;28;20321;-62
2022/06/07 02:36:57;;;;;;;4.23;1.60;;;;;;;13.72;90.28;100352.34;8294718;28;20041;-62
2022/06/07 02:40:58;;;;;;;4.80;1.50;;;;;;;13.77;90.27;100344.56;8294597;28;20292;-62
2022/06/07 02:44:58;;;;;;;1.75;1.50;;;;;;;13.72;90.32;100341.50;8294021;28;20030;-62
2022/06/07 02:48:59;;;;;;;3.25;1.30;;;;;;;13.72;90.18;100336.91;8294511;28;20084;-62
2022/06/07 02:52:59;;;;;;;4.05;1.35;;;;;;;13.79;89.89;100337.13;8294591;28;20584;-62
2022/06/07 02:57:00;;;;;;;5.53;1.55;;;;;;;13.65;90.85;100345.88;8292849;28;20076;-62
2022/06/07 03:01:00;;;;;;;2.88;1.50;;;;;;;13.58;90.98;100339.44;8293269;28;20424;-62
2022/06/07 03:05:00;;;;;;;5.33;1.37;;;;;;;13.63;90.80;100342.47;8289391;28;20033;-62
2022/06/07 03:09:01;;;;;;;5.53;1.30;;;;;;;13.54;90.99;100340.75;8313157;28;20641;-62
2022/06/07 03:13:01;;;;;;;2.58;1.05;;;;;;;13.50;91.04;100339.38;8293245;28;20277;-62
2022/06/07 03:17:02;;;;;;;1.98;1.48;;;;;;;13.49;91.22;100340.41;8291910;28;20042;-62
2022/06/07 03:21:03;;;;;;;3.50;1.40;;;;;;;13.47;91.66;100331.56;8300922;28;20088;-62
2022/06/07 03:25:05;;;;;;;2.22;1.10;;;;;;;13.48;92.35;100338.72;8292044;28;20030;-62
2022/06/07 03:29:05;;;;;;;4.00;1.17;;;;;;;13.55;92.50;100346.00;8292924;28;20030;-62
2022/06/07 03:33:06;;;;;;;3.50;1.57;;;;;;;13.56;93.11;100352.31;8279837;28;20039;-62
2022/06/07 03:37:06;;;;;;;5.97;1.50;;;;;;;13.58;93.15;100344.84;8322308;28;20837;-62
2022/06/07 03:41:08;;;;;;;4.40;1.70;;;;;;;13.59;93.68;100335.69;8324301;28;20451;-62
2022/06/07 03:45:09;;;;;;;9.00;2.00;;;;;;;13.68;93.29;100351.00;8322672;28;20052;-62
2022/06/07 03:49:10;;;;;;;2.05;1.42;;;;;;;13.67;92.88;100336.56;8316603;28;20129;-62
2022/06/07 03:53:11;;;;;;;6.10;1.80;;;;;;;13.81;92.74;100346.78;8318444;28;20042;-62
2022/06/07 03:57:12;;;;;;;3.38;1.85;;;;;;;13.92;91.46;100348.34;8280208;28;20511;-62
2022/06/07 04:01:15;;;;;;;4.47;1.33;;;;;;;13.96;91.08;100352.44;8291973;28;20100;-62
2022/06/07 04:05:15;;;;;;;2.70;1.48;;;;;;;14.04;90.93;100360.63;8291791;28;20127;-62
2022/06/07 04:09:16;;;;;;;3.25;1.23;;;;;;;14.06;91.17;100363.19;8291644;28;20038;-62
2022/06/07 04:13:17;;;;;;;1.90;1.17;;;;;;;14.21;90.54;100365.06;8290883;28;20037;-62
2022/06/07 04:17:17;;;;;;;4.75;1.33;;;;;;;14.34;90.40;100360.03;8291566;28;20482;-62
2022/06/07 04:21:19;;;;;;;2.13;1.15;;;;;;;14.49;89.45;100357.47;8287811;28;20397;-62
2022/06/07 04:25:19;;;;;;;3.08;1.30;;;;;;;14.51;89.36;100356.28;8285374;28;20041;-62
2022/06/07 04:29:20;;;;;;;3.55;1.25;;;;;;;14.75;88.89;100360.88;8288474;28;20038;-62
2022/06/07 04:33:20;;;;;;;4.97;1.42;;;;;;;14.92;87.88;100355.25;8301586;28;20456;-62
2022/06/07 04:37:21;;;;;;;2.47;1.05;;;;;;;14.90;88.64;100354.56;8289255;28;20037;-62
2022/06/07 04:41:22;;;;;;;3.35;1.50;;;;;;;14.83;89.11;100361.72;8286667;28;20084;-62
2022/06/07 04:45:23;;;;;;;1.60;1.10;;;;;;;14.91;89.43;100355.44;8280167;28;20042;-62
2022/06/07 04:49:26;;;;;;;3.22;1.50;;;;;;;14.90;90.03;100361.88;8294148;28;20061;-62
2022/06/07 04:53:26;;;;;;;2.72;1.67;;;;;;;15.22;89.14;100362.66;8304913;28;20048;-62
2022/06/07 04:57:29;;;;;;;4.65;1.50;;;;;;;15.11;88.70;100354.88;8290057;28;20041;-62
2022/06/07 05:01:32;;;;;;;2.70;1.63;;;;;;;15.27;89.19;100359.41;8300016;28;20114;-62
2022/06/07 05:05:32;;;;;;;2.00;1.20;;;;;;;15.61;87.91;100358.16;8317548;28;20112;-62
2022/06/07 05:09:33;;;;;;;3.73;1.20;;;;;;;16.17;86.33;100364.34;8317973;28;20037;-62
2022/06/07 05:13:33;;;;;;;2.17;1.15;;;;;;;16.25;85.08;100365.13;8308738;28;20280;-62
2022/06/07 05:17:34;;;;;;;5.20;1.40;;;;;;;16.03;86.25;100367.81;8289952;28;20041;-62
2022/06/07 05:21:34;;;;;;;3.47;1.23;;;;;;;15.84;86.38;100376.44;8295046;28;20065;-62
2022/06/07 05:25:35;;;;;;;3.65;1.00;;;;;;;16.16;85.91;100373.56;8290821;28;20073;-62
2022/06/07 05:29:55;;;;;;;3.88;1.40;;;;;;;16.39;84.24;100374.41;8284622;28;20181;-62
2022/06/07 05:33:56;;;;;;;1.90;1.00;;;;;;;16.88;81.90;100382.06;8291011;28;20043;-62
2022/06/07 05:37:56;;;;;;;3.33;1.30;;;;;;;16.82;83.89;100384.69;8290753;28;20041;-62
2022/06/07 05:41:58;;;;;;;1.83;0.73;;;;;;;16.90;81.42;100390.09;8286096;28;20405;-62
2022/06/07 05:46:00;;;;;;;1.70;1.05;;;;;;;16.74;81.94;100384.78;8284138;28;20351;-62
2022/06/07 05:50:01;;;;;;;2.00;1.10;;;;;;;16.57;83.68;100389.50;8296241;28;20497;-63
2022/06/07 05:54:01;;;;;;;4.40;1.27;;;;;;;16.40;85.11;100392.47;8292175;28;20315;-62
2022/06/07 05:58:02;;;;;;;2.28;1.00;;;;;;;16.69;84.01;100381.72;8289053;28;20112;-62
2022/06/07 06:02:03;;;;;;;3.72;1.55;;;;;;;16.87;83.20;100388.53;8280837;28;20389;-62
2022/06/07 06:06:08;;;;;;;2.00;1.13;;;;;;;16.87;84.15;100391.28;8291819;28;20414;-62
2022/06/07 06:10:24;;;;;;;4.00;1.38;;;;;;;17.16;83.04;100396.81;8291488;28;20057;-62
2022/06/07 06:14:24;;;;;;;4.40;1.10;;;;;;;17.80;80.66;100387.06;8290762;28;20033;-62
2022/06/07 06:18:25;;;;;;;2.28;0.68;;;;;;;17.80;78.72;100373.41;8292147;28;20045;-62
2022/06/07 06:22:26;;;;;;;4.45;1.10;;;;;;;18.28;77.41;100377.34;8297362;28;20044;-62
2022/06/07 06:26:26;;;;;;;3.10;0.63;;;;;;;19.10;74.66;100387.69;8291334;28;20259;-63
2022/06/07 06:30:27;;;;;;;3.67;1.10;;;;;;;19.90;70.34;100377.91;8289456;28;20046;-63
2022/06/07 06:34:29;;;;;;;5.53;0.90;;;;;;;19.76;69.98;100369.81;8288301;28;20042;-63
2022/06/07 06:38:31;;;;;;;5.32;1.10;;;;;;;19.70;71.00;100373.38;8285862;28;20367;-63
2022/06/07 06:42:32;;;;;;;5.35;1.10;;;;;;;20.18;68.46;100369.59;8276349;28;20033;-63
2022/06/07 06:46:35;;;;;;;4.88;1.20;;;;;;;20.34;67.94;100370.06;8289183;28;20061;-63
2022/06/07 06:50:36;;;;;;;5.93;1.60;;;;;;;20.11;69.81;100374.19;8287225;28;20038;-63
2022/06/07 06:54:37;;;;;;;3.20;0.90;;;;;;;20.31;68.31;100369.66;8286347;28;20545;-63
2022/06/07 06:58:39;;;;;;;3.33;0.80;;;;;;;20.69;65.87;100379.03;8288151;28;20061;-64
2022/06/07 07:02:39;;;;;;;2.35;0.60;;;;;;;20.78;65.95;100377.78;8287014;28;20041;-63
2022/06/07 07:06:40;;;;;;;2.13;0.63;;;;;;;20.69;64.61;100384.50;8287089;28;20052;-63
2022/06/07 07:10:40;;;;;;;2.35;0.57;;;;;;;20.55;65.10;100375.41;8291616;28;20349;-63
2022/06/07 07:14:40;;;;;;;3.88;0.70;;;;;;;20.79;64.91;100373.94;8284977;28;20038;-63
2022/06/07 07:18:41;;;;;;;2.17;0.67;;;;;;;20.97;64.92;100371.47;8286506;28;20129;-63
2022/06/07 07:22:42;;;;;;;3.55;0.60;;;;;;;21.34;65.73;100373.56;8286593;28;20280;-63
2022/06/07 07:26:44;;;;;;;2.10;0.90;;;;;;;21.52;65.61;100379.25;8286972;28;20394;-63
2022/06/07 07:30:45;;;;;;;1.17;0.50;;;;;;;21.32;63.68;100372.94;8286245;28;20386;-63
2022/06/07 07:34:45;;;;;;;6.78;1.38;;;;;;;21.41;66.31;100379.94;8286136;28;20393;-63
2022/06/07 07:38:46;;;;;;;2.37;0.80;;;;;;;21.80;66.12;100374.34;8286320;28;20041;-63
2022/06/07 07:42:46;;;;;;;4.75;1.00;;;;;;;22.12;63.36;100373.38;8288863;28;20265;-63
2022/06/07 07:46:48;;;;;;;4.00;0.63;;;;;;;21.65;64.26;100370.97;8286828;28;20109;-63
2022/06/07 07:50:50;;;;;;;3.75;0.80;;;;;;;21.83;66.02;100371.16;8286938;28;20161;-63
2022/06/07 07:54:51;;;;;;;4.47;0.98;;;;;;;21.81;63.43;100376.06;8290325;28;20037;-63
2022/06/07 07:58:52;;;;;;;4.28;0.75;;;;;;;21.78;66.03;100365.47;8286060;28;20030;-63
2022/06/07 08:02:52;;;;;;;2.95;0.80;;;;;;;21.91;64.18;100376.44;8285581;28;20474;-63
2022/06/07 08:06:53;;;;;;;3.53;0.80;;;;;;;22.41;62.51;100367.28;8288551;28;20484;-63
2022/06/07 08:10:54;;;;;;;4.45;1.15;;;;;;;22.20;63.20;100370.38;8286351;28;20280;-63
2022/06/07 08:14:55;;;;;;;4.80;0.98;;;;;;;22.08;62.20;100363.84;8284440;28;20062;-63
2022/06/07 08:18:55;;;;;;;6.55;0.80;;;;;;;22.43;63.38;100370.69;8284697;28;20042;-63
2022/06/07 08:22:56;;;;;;;2.00;0.65;;;;;;;22.42;61.69;100357.94;8282361;28;20135;-63
2022/06/07 08:26:56;;;;;;;4.10;0.80;;;;;;;22.15;62.04;100367.44;8283252;28;20030;-63
2022/06/07 08:30:58;;;;;;;2.45;0.82;;;;;;;21.60;63.62;100362.53;8285410;28;20500;-63
2022/06/07 08:39:20;;;;;;;4.65;0.80;;;;;;;21.21;65.49;100351.59;8282822;28;20038;-63
2022/06/07 08:43:23;;;;;;;3.28;0.98;;;;;;;21.25;65.14;100347.34;8288474;28;20033;-63
2022/06/07 08:47:33;;;;;;;3.03;0.70;;;;;;;21.63;65.96;100351.09;8283404;28;20139;-63
2022/06/07 08:51:56;;;;;;;2.53;0.73;;;;;;;22.14;63.96;100349.22;8287879;28;20042;-63
2022/06/07 08:56:00;;;;;;;1.15;0.57;;;;;;;22.55;63.47;100344.16;8282753;28;20030;-63
2022/06/07 09:00:20;;;;;;;2.00;0.70;;;;;;;22.55;60.99;100346.91;8284232;28;20739;-63
2022/06/07 09:08:42;;;;;;;3.08;0.60;;;;;;;21.65;62.74;100348.13;8382339;27;20918;-63
2022/06/07 09:13:02;;;;;;;2.95;0.40;;;;;;;21.70;63.64;100345.53;8387552;28;20261;-63
2022/06/07 09:17:09;;;;;;;2.30;0.70;;;;;;;21.66;63.78;100339.66;8400943;27;20043;-63
2022/06/07 09:21:21;;;;;;;3.75;1.00;;;;;;;21.75;63.69;100330.13;8409021;27;20032;-63
2022/06/07 09:25:30;;;;;;;6.45;0.95;;;;;;;21.93;64.80;100330.28;8410902;27;20028;-63
2022/06/07 09:29:36;;;;;;;1.67;0.65;;;;;;;22.24;62.90;100333.06;8400862;27;21562;-63
2022/06/07 09:33:48;;;;;;;2.75;0.60;;;;;;;22.23;63.51;100331.38;8410252;27;20094;-63
2022/06/07 09:37:55;;;;;;;2.55;0.65;;;;;;;22.30;63.97;100315.66;8409486;27;20032;-63
2022/06/07 09:42:04;;;;;;;3.30;0.60;;;;;;;22.71;62.29;100313.28;8404512;27;20048;-63
2022/06/07 09:46:08;;;;;;;3.33;0.60;;;;;;;22.98;60.40;100314.75;8408842;27;20058;-63
2022/06/07 09:50:31;;;;;;;2.28;0.50;;;;;;;23.56;60.80;100317.16;8408604;27;20532;-63
2022/06/07 09:54:37;;;;;;;3.53;0.60;;;;;;;23.70;59.58;100314.03;8381097;27;20529;-63
2022/06/07 09:59:18;;;;;;;4.97;0.57;;;;;;;24.85;57.97;100316.47;8398450;28;20060;-63
2022/06/07 10:03:44;;;;;;;1.60;0.60;;;;;;;24.94;57.29;100309.50;8395202;28;20036;-63
2022/06/07 10:07:57;;;;;;;4.20;0.70;;;;;;;25.71;55.20;100309.16;8411637;28;20064;-62
2022/06/07 10:16:30;;;;;;;3.33;0.85;;;;;;;26.06;55.15;100303.56;8390217;27;20393;-62
2022/06/07 10:21:02;;;;;;;2.35;0.65;;;;;;;25.25;56.81;100300.84;8390029;28;20126;-62
2022/06/07 10:25:25;;;;;;;1.33;0.60;;;;;;;24.20;58.46;100292.56;8382233;27;20472;-62
2022/06/07 10:29:53;;;;;;;4.73;0.70;;;;;;;25.90;57.54;100284.91;8375588;28;20100;-62
2022/06/07 10:34:04;;;;;;;2.58;0.60;;;;;;;25.61;56.08;100283.19;8379522;28;20029;-62
2022/06/07 10:38:20;;;;;;;3.92;0.80;;;;;;;24.24;59.91;100277.22;8386333;27;20078;-62
2022/06/07 10:42:50;;;;;;;3.50;0.77;;;;;;;23.40;61.55;100279.13;8386346;27;20140;-62
2022/06/07 10:46:51;;;;;;;1.65;0.50;;;;;;;23.06;62.88;100273.06;8387922;27;20448;-62
2022/06/07 10:52:24;;;;;;;3.30;0.90;;;;;;;22.65;63.53;100275.59;8376705;27;20169;-62
2022/06/07 10:55:50;;;;;;;2.83;0.90;;;;;;;22.34;63.91;100278.34;8389363;27;20036;-62
2022/06/07 10:59:52;;;;;;;2.40;0.75;;;;;;;22.22;65.22;100273.75;8393833;27;20086;-62
2022/06/07 11:09:30;;;;;;;1.27;0.60;;;;;;;21.75;65.83;100275.06;8382612;27;20037;-62
2022/06/07 11:13:33;;;;;;;4.45;1.17;;;;;;;21.65;67.75;100277.41;8387390;27;20055;-62
2022/06/07 11:17:46;;;;;;;1.77;0.52;;;;;;;21.79;67.85;100279.06;8386387;27;20076;-63
2022/06/07 11:21:49;;;;;;;3.78;0.77;;;;;;;21.93;67.24;100275.22;8389999;28;20040;-63
2022/06/07 11:26:14;;;;;;;1.38;0.50;;;;;;;22.05;68.57;100283.59;8365082;28;20039;-63
2022/06/07 11:30:24;;;;;;;1.15;0.50;;;;;;;21.93;67.89;100290.88;8378665;28;20107;-63
2022/06/07 11:34:27;;;;;;;1.95;0.55;;;;;;;21.61;70.38;100300.91;8367213;28;20043;-63
2022/06/07 11:38:30;;;;;;;2.55;0.80;;;;;;;21.35;71.80;100290.00;8358900;28;20052;-63
2022/06/07 11:42:36;;;;;;;3.75;0.73;;;;;;;21.10;79.14;100288.97;8352107;28;20406;-63
2022/06/07 11:46:40;;;;;;;1.73;0.77;;;;;;;20.59;81.73;100302.50;8356024;28;20036;-63
2022/06/07 11:51:13;;;;;;;2.88;1.40;;;;;;;20.22;86.41;100294.84;8359181;28;20040;-63
2022/06/07 11:55:18;;;;;;;2.67;1.10;;;;;;;20.08;90.67;100297.72;8362095;28;20094;-63
2022/06/07 12:03:33;;;;;;;2.08;1.20;;;;;;;20.30;89.80;100291.06;8371663;27;20177;-62
2022/06/07 12:07:51;;;;;;;2.42;1.30;;;;;;;20.76;89.34;100311.16;8393842;28;20442;-62
2022/06/07 12:11:51;;;;;;;2.05;0.95;;;;;;;21.14;85.99;100301.25;8401071;27;20040;-62
2022/06/07 12:15:52;;;;;;;2.28;1.20;;;;;;;21.05;86.30;100297.84;8392388;27;20335;-62
2022/06/07 12:19:53;;;;;;;3.08;1.00;;;;;;;20.99;86.03;100298.75;8388827;28;20477;-62
2022/06/07 12:24:09;;;;;;;1.67;0.80;;;;;;;21.02;86.13;100291.97;8399650;27;20049;-62
2022/06/07 12:28:22;;;;;;;1.75;0.70;;;;;;;20.83;88.40;100292.81;8376677;28;20041;-63
2022/06/07 12:32:32;;;;;;;3.33;0.70;;;;;;;20.71;91.35;100294.50;8376727;28;20068;-63
2022/06/07 12:36:39;;;;;;;1.27;1.00;;;;;;;20.48;95.20;100292.16;8374466;28;20479;-62
2022/06/07 12:41:01;;;;;;;1.67;1.20;;;;;;;20.40;99.47;100277.78;8395941;28;20047;-62
2022/06/07 12:45:19;;;;;;;6.03;1.17;;;;;;;20.19;96.77;100278.78;8387431;28;20048;-61
2022/06/07 12:49:24;;;;;;;3.28;1.10;;;;;;;20.17;93.97;100271.81;8381520;28;20340;-61
2022/06/07 12:53:27;;;;;;;2.90;1.42;;;;;;;20.10;96.09;100279.16;8392153;28;20060;-61
2022/06/07 12:57:31;;;;;;;1.90;1.00;;;;;;;20.29;91.34;100279.25;8410303;28;20762;-61
2022/06/07 13:01:37;;;;;;;1.77;0.80;;;;;;;20.87;90.89;100275.69;8372037;28;20044;-62
2022/06/07 13:05:37;;;;;;;1.35;0.98;;;;;;;20.93;89.33;100276.72;8378313;28;20059;-62
2022/06/07 13:09:38;;;;;;;1.73;1.27;;;;;;;20.58;94.36;100276.09;8390311;28;20044;-62
2022/06/07 13:13:41;;;;;;;1.83;1.45;;;;;;;20.27;98.20;100264.00;8388860;28;20036;-62
2022/06/07 13:18:00;;;;;;;3.90;1.70;;;;;;;19.98;99.71;100269.84;8384644;28;20119;-62
2022/06/07 13:22:14;;;;;;;4.03;1.92;;;;;;;20.25;100.00;100266.13;8372336;28;20044;-61
2022/06/07 13:26:20;;;;;;;3.20;1.95;;;;;;;20.38;100.00;100267.00;8378653;28;20048;-61
2022/06/07 13:45:19;;;;;;;1.95;1.45;;;;;;;22.37;84.77;100239.31;8260593;28;20779;-61
2022/06/07 13:53:55;;;;;;;2.70;1.15;;;;;;;22.80;85.64;100228.38;8242463;28;20540;-62
2022/06/07 13:57:56;;;;;;;3.22;1.55;;;;;;;22.58;86.32;100236.22;8244761;28;20134;-62
2022/06/07 14:01:56;;;;;;;1.48;1.30;;;;;;;22.14;86.56;100239.03;8243643;28;20046;-62
2022/06/07 14:05:57;;;;;;;3.77;1.57;;;;;;;21.44;85.74;100233.69;8224047;28;20075;-62
2022/06/07 14:09:58;;;;;;;2.95;1.55;;;;;;;21.45;90.79;100231.78;8242729;28;20830;-62
2022/06/07 14:13:58;;;;;;;1.43;1.30;;;;;;;21.52;88.65;100233.44;8243150;28;20587;-63
2022/06/07 14:17:59;;;;;;;1.67;1.58;;;;;;;22.04;88.02;100227.69;8244070;28;20293;-61
2022/06/07 14:22:15;;;;;;;2.58;1.25;;;;;;;22.39;85.14;100219.81;8243521;28;20038;-63
2022/06/07 14:26:15;;;;;;;4.68;1.50;;;;;;;22.06;84.80;100220.06;8235764;28;20122;-62
2022/06/07 14:30:16;;;;;;;3.20;1.40;;;;;;;22.25;85.35;100210.81;8229413;28;20283;-63
2022/06/07 14:34:22;;;;;;;1.83;1.38;;;;;;;22.43;85.57;100210.03;8244889;28;20038;-63
2022/06/07 14:38:23;;;;;;;3.28;1.30;;;;;;;22.38;80.50;100207.94;8239824;28;20491;-63
2022/06/07 14:42:23;;;;;;;2.42;1.20;;;;;;;22.44;80.59;100201.53;8239794;28;20054;-62
2022/06/07 14:46:25;;;;;;;2.28;1.88;;;;;;;22.12;80.71;100191.63;8220711;28;20125;-62
2022/06/07 14:50:26;;;;;;;3.92;1.63;;;;;;;21.73;83.51;100202.00;8220837;28;20467;-62
2022/06/07 14:54:31;;;;;;;2.00;1.70;;;;;;;21.51;85.93;100198.75;8213013;28;20076;-62
2022/06/07 14:58:31;;;;;;;2.33;1.85;;;;;;;21.40;86.29;100196.66;8218339;28;20050;-62
2022/06/07 15:02:36;;;;;;;6.00;2.07;;;;;;;21.65;89.12;100203.09;8216179;28;20046;-63
2022/06/07 15:06:40;;;;;;;2.28;1.83;;;;;;;21.61;84.00;100190.84;8209698;28;20674;-63
2022/06/07 15:10:42;;;;;;;4.95;3.10;;;;;;;21.54;90.03;100203.81;8209625;28;20054;-63
2022/06/07 15:14:44;;;;;;;3.38;2.78;;;;;;;21.17;91.30;100197.16;8212369;28;20534;-62
2022/06/07 15:18:45;;;;;;;3.00;2.55;;;;;;;21.12;96.63;100199.75;8223765;28;20110;-63
2022/06/07 15:22:46;;;;;;;5.10;3.60;;;;;;;21.10;98.29;100192.75;8197005;28;20046;-63
2022/06/07 15:26:49;;;;;;;6.15;3.40;;;;;;;21.02;94.69;100193.00;8244891;28;20104;-63
2022/06/07 15:30:51;;;;;;;7.75;3.95;;;;;;;20.92;95.46;100196.16;8200312;28;20146;-62
2022/06/07 15:34:56;;;;;;;5.47;3.90;;;;;;;20.70;93.62;100199.34;8202574;28;20066;-63
2022/06/07 15:38:56;;;;;;;3.47;3.17;;;;;;;20.68;95.13;100196.00;8208790;28;20047;-63
2022/06/07 15:42:59;;;;;;;2.83;2.63;;;;;;;20.13;100.00;100186.28;8209995;28;20072;-62
2022/06/07 15:46:59;;;;;;;4.40;3.97;;;;;;;19.75;100.00;100187.03;8202315;28;20035;-62
2022/06/07 15:51:01;;;;;;;7.80;4.33;;;;;;;19.54;100.00;100165.28;8202205;28;20073;-62
2022/06/07 15:55:03;;;;;;;6.63;4.22;;;;;;;19.67;100.00;100151.59;8194335;28;20426;-62
2022/06/07 15:59:03;;;;;;;5.18;4.15;;;;;;;19.87;100.00;100168.91;8202285;28;20045;-62
2022/06/07 16:03:04;;;;;;;4.43;3.85;;;;;;;19.97;100.00;100170.19;8201982;28;20050;-62
2022/06/07 16:07:04;;;;;;;5.97;4.75;;;;;;;20.25;100.00;100170.03;8201295;28;20042;-62
2022/06/07 16:11:05;;;;;;;6.55;4.40;;;;;;;20.56;100.00;100175.72;8197840;28;20050;-62
2022/06/07 16:15:07;;;;;;;6.90;4.30;;;;;;;20.41;100.00;100186.09;8186655;28;20057;-62
2022/06/07 16:19:09;;;;;;;6.72;4.40;;;;;;;20.30;100.00;100193.06;8214523;28;20081;-61
2022/06/07 16:23:10;;;;;;;6.75;5.85;;;;;;;20.03;100.00;100198.72;8217851;28;20038;-62
2022/06/07 16:35:55;;;;;;;7.78;6.53;;;;;;;19.48;100.00;100213.53;8203199;28;20253;-62
2022/06/07 16:39:55;;;;;;;10.35;6.75;;;;;;;19.43;100.00;100219.63;8206233;28;20054;-62
2022/06/07 16:44:03;;;;;;;8.38;6.10;;;;;;;19.29;100.00;100217.06;8209604;28;20043;-62
2022/06/07 16:48:04;;;;;;;7.82;6.18;;;;;;;19.51;100.00;100213.13;8193709;28;20106;-62
2022/06/07 16:52:06;;;;;;;7.32;5.28;;;;;;;19.39;100.00;100199.16;8214736;28;20644;-62
2022/06/07 16:56:07;;;;;;;6.45;5.00;;;;;;;19.45;100.00;100203.84;8217584;28;20109;-63
2022/06/07 17:00:08;;;;;;;5.43;4.93;;;;;;;19.55;100.00;100199.88;8200298;28;20194;-62
2022/06/07 17:04:11;;;;;;;9.38;5.63;;;;;;;19.60;100.00;100205.59;8170449;28;20043;-62
2022/06/07 17:08:14;;;;;;;6.13;4.88;;;;;;;19.76;100.00;100199.72;8154863;28;20047;-62
2022/06/07 17:12:14;;;;;;;6.63;4.60;;;;;;;19.76;100.00;100199.72;8159361;28;20051;-62
2022/06/07 17:16:16;;;;;;;6.03;5.47;;;;;;;19.77;100.00;100195.91;8183597;28;20066;-62
2022/06/07 17:20:16;;;;;;;8.20;5.53;;;;;;;19.71;100.00;100191.25;8188732;28;20290;-62
2022/06/07 17:24:17;;;;;;;6.70;5.88;;;;;;;19.54;100.00;100193.53;8183408;28;20071;-62
2022/06/07 17:28:17;;;;;;;7.30;6.03;;;;;;;19.57;100.00;100211.47;8190009;28;20065;-62
2022/06/07 17:32:17;;;;;;;6.35;5.40;;;;;;;19.60;100.00;100211.06;8193511;28;20290;-62
2022/06/07 17:36:23;;;;;;;5.87;5.43;;;;;;;19.60;100.00;100211.91;8204451;28;20050;-62
2022/06/07 17:40:26;;;;;;;6.20;5.60;;;;;;;19.42;100.00;100215.22;8185862;28;20647;-62
2022/06/07 17:44:27;;;;;;;9.15;6.03;;;;;;;19.32;100.00;100214.75;8191812;28;20039;-62
2022/06/07 17:48:27;;;;;;;6.53;5.85;;;;;;;19.28;100.00;100212.63;8207644;28;20370;-62
2022/06/07 17:52:28;;;;;;;10.82;6.75;;;;;;;19.49;100.00;100207.84;8203002;28;20126;-62
2022/06/07 17:56:29;;;;;;;8.33;6.60;;;;;;;19.34;100.00;100223.59;8194891;28;20046;-62
2022/06/07 18:00:31;;;;;;;8.48;7.10;;;;;;;19.26;100.00;100221.06;8195526;28;20283;-62
2022/06/07 18:04:31;;;;;;;12.63;7.15;;;;;;;19.04;100.00;100224.91;8199129;28;20046;-62
2022/06/07 18:08:32;;;;;;;9.43;7.67;;;;;;;19.06;100.00;100214.56;8214831;28;20583;-62
2022/06/07 18:12:33;;;;;;;9.93;8.30;;;;;;;19.08;100.00;100212.50;8211720;28;20378;-62
2022/06/07 18:16:38;;;;;;;9.52;8.45;;;;;;;19.07;100.00;100220.91;8213342;28;20046;-61
2022/06/07 18:20:39;;;;;;;8.95;7.57;;;;;;;18.95;100.00;100212.44;8214918;28;20030;-62
2022/06/07 18:24:40;;;;;;;10.20;8.45;;;;;;;18.72;100.00;100214.56;8207079;28;20039;-61
2022/06/07 18:28:43;;;;;;;12.60;9.63;;;;;;;18.82;100.00;100217.78;8219316;28;20049;-61
2022/06/07 18:32:44;;;;;;;33.60;8.30;;;;;;;18.75;100.00;100222.41;8217127;28;20035;-61
2022/06/07 18:36:47;;;;;;;11.88;6.53;;;;;;;18.48;100.00;100225.97;8201678;28;20058;-61
2022/06/07 18:40:50;;;;;;;4.18;3.78;;;;;;;18.33;100.00;100222.44;8199426;28;20058;-61
2022/06/07 18:44:51;;;;;;;3.53;3.23;;;;;;;18.32;100.00;100218.03;8203696;28;20047;-60
2022/06/07 18:48:51;;;;;;;5.70;3.40;;;;;;;18.25;100.00;100208.91;8205371;28;20121;-60
2022/06/07 18:52:52;;;;;;;3.88;3.58;;;;;;;18.24;100.00;100218.16;8216196;28;20047;-60
2022/06/07 18:56:53;;;;;;;3.72;2.45;;;;;;;18.14;100.00;100234.06;8214078;28;20035;-60
2022/06/07 19:00:54;;;;;;;2.50;2.30;;;;;;;18.13;100.00;100234.25;8199909;28;20117;-60
2022/06/07 19:04:54;;;;;;;3.42;2.75;;;;;;;18.24;100.00;100228.28;8214562;28;20111;-60
2022/06/07 19:08:55;;;;;;;2.57;2.30;;;;;;;18.19;100.00;100226.13;8218687;28;20187;-60
2022/06/07 19:12:56;;;;;;;3.10;2.50;;;;;;;18.20;100.00;100225.06;8219077;28;20345;-61
2022/06/07 19:16:57;;;;;;;2.80;2.00;;;;;;;18.12;100.00;100219.75;8201292;28;20060;-60
2022/06/07 19:21:01;;;;;;;4.20;1.92;;;;;;;18.09;100.00;100216.56;8201264;28;20411;-61
2022/06/07 19:25:05;;;;;;;3.17;2.10;;;;;;;17.99;100.00;100207.84;8218732;28;20449;-61
2022/06/07 19:29:05;;;;;;;3.00;2.50;;;;;;;17.94;100.00;100222.09;8201961;28;20039;-61
2022/06/07 19:33:05;;;;;;;2.22;2.00;;;;;;;17.91;100.00;100222.47;8241953;28;20448;-61
2022/06/07 19:37:06;;;;;;;5.87;2.67;;;;;;;17.94;100.00;100213.88;8231379;28;20138;-61
2022/06/07 19:41:07;;;;;;;2.53;2.33;;;;;;;17.95;100.00;100218.31;8208642;28;20321;-61
2022/06/07 19:45:09;;;;;;;2.45;2.13;;;;;;;17.91;100.00;100219.75;8217992;28;20518;-61
2022/06/07 19:49:10;;;;;;;4.03;2.30;;;;;;;17.89;100.00;100218.22;8220331;28;20570;-61